Time;durP1;ratioP1;P1;durP2;ratioP2;P2;SDS_P1;SDS_P2;PMS_P1;PMS_P2;Temp;Humidity;BMP_temperature;BMP_pressure;BME280_temperature;BME280_humidity;BME280_pressure;Samples;Min_cycle;Max_cycle;Signal;HPM_P1;HPM_P2
2023/05/04 00:00:15;;;;;;;4.88;3.70;;;9.80;99.90;;;;;;5063204;28;20066;-42
2023/05/04 00:02:41;;;;;;;6.60;4.28;;;9.80;99.90;;;;;;5073167;28;20028;-42
2023/05/04 00:05:07;;;;;;;10.43;4.32;;;9.70;99.90;;;;;;5062992;28;20112;-43
2023/05/04 00:07:33;;;;;;;6.97;4.05;;;9.70;99.90;;;;;;5072904;28;20040;-40
2023/05/04 00:09:58;;;;;;;6.57;4.35;;;9.60;99.90;;;;;;5072093;28;20020;-42
2023/05/04 00:12:24;;;;;;;6.00;4.35;;;9.70;99.90;;;;;;5072676;28;20085;-42
2023/05/04 00:14:50;;;;;;;8.65;4.25;;;9.60;99.90;;;;;;5071273;28;20039;-39
2023/05/04 00:17:16;;;;;;;7.10;4.60;;;9.60;99.90;;;;;;5067778;28;20027;-45
2023/05/04 00:19:43;;;;;;;13.18;6.03;;;9.60;99.90;;;;;;5070916;28;20020;-41
2023/05/04 00:22:09;;;;;;;7.93;4.35;;;9.50;99.90;;;;;;5066709;28;20106;-41
2023/05/04 00:24:34;;;;;;;6.45;4.68;;;9.60;99.90;;;;;;5069306;28;20054;-42
2023/05/04 00:27:01;;;;;;;14.15;4.88;;;9.50;99.90;;;;;;5073214;28;20024;-43
2023/05/04 00:29:26;;;;;;;6.63;4.65;;;9.50;99.90;;;;;;5073159;28;20428;-44
2023/05/04 00:31:52;;;;;;;8.50;4.75;;;9.50;99.90;;;;;;5072529;28;20056;-43
2023/05/04 00:34:18;;;;;;;6.65;4.63;;;9.50;99.90;;;;;;5069758;28;20396;-41
2023/05/04 00:36:43;;;;;;;6.50;4.32;;;9.40;99.90;;;;;;5073119;28;20537;-42
2023/05/04 00:39:09;;;;;;;7.40;5.68;;;9.40;99.90;;;;;;5072743;28;20040;-41
2023/05/04 00:41:35;;;;;;;5.95;4.38;;;9.40;99.90;;;;;;5070701;28;20527;-43
2023/05/04 00:44:03;;;;;;;9.65;4.50;;;9.40;99.90;;;;;;5064749;28;20017;-39
2023/05/04 00:46:29;;;;;;;7.35;4.05;;;9.40;99.90;;;;;;5059860;28;20024;-43
2023/05/04 00:48:55;;;;;;;6.45;4.65;;;9.30;99.90;;;;;;5071194;28;20029;-43
2023/05/04 00:51:24;;;;;;;6.57;4.10;;;9.30;99.90;;;;;;5056601;28;20037;-43
2023/05/04 00:53:50;;;;;;;9.35;4.78;;;9.30;99.90;;;;;;5052993;28;20033;-48
2023/05/04 00:56:17;;;;;;;5.00;3.97;;;9.30;99.90;;;;;;5052599;28;20031;-43
2023/05/04 00:58:42;;;;;;;9.60;4.38;;;9.30;99.90;;;;;;5062870;28;20111;-45
2023/05/04 01:01:08;;;;;;;4.97;4.03;;;9.30;99.90;;;;;;5071404;28;20524;-42
2023/05/04 01:03:34;;;;;;;8.30;4.00;;;9.20;99.90;;;;;;5069157;28;20031;-47
2023/05/04 01:06:33;;;;;;;7.32;4.45;;;9.20;99.90;;;;;;5073846;28;20369;-37
2023/05/04 01:09:35;;;;;;;6.50;4.35;;;9.20;99.90;;;;;;5063321;28;20540;-36
2023/05/04 01:12:10;;;;;;;6.97;4.97;;;9.20;99.90;;;;;;5056680;28;20041;-38
2023/05/04 01:14:37;;;;;;;7.18;5.20;;;9.20;99.90;;;;;;5057498;28;20055;-38
2023/05/04 01:17:05;;;;;;;8.68;4.43;;;9.20;99.90;;;;;;5072048;28;20067;-36
2023/05/04 01:19:31;;;;;;;5.53;4.55;;;9.20;99.90;;;;;;5076475;28;20552;-39
2023/05/04 01:21:57;;;;;;;7.75;4.60;;;9.10;99.90;;;;;;5076195;28;20036;-34
2023/05/04 01:24:26;;;;;;;10.48;4.20;;;9.20;99.90;;;;;;5060131;28;20376;-40
2023/05/04 01:26:57;;;;;;;7.22;4.43;;;9.10;99.90;;;;;;5056564;28;20025;-35
2023/05/04 01:29:33;;;;;;;6.53;4.25;;;9.10;99.90;;;;;;5056942;28;20477;-33
2023/05/04 01:32:01;;;;;;;6.45;4.38;;;9.10;99.90;;;;;;5061933;28;20033;-36
2023/05/04 01:34:27;;;;;;;;;;;9.10;99.90;;;;;;5076658;28;20078;-38
2023/05/04 01:36:53;;;;;;;11.32;4.63;;;9.10;99.90;;;;;;5064689;28;19908;-38
2023/05/04 01:39:19;;;;;;;11.45;4.50;;;9.10;99.90;;;;;;5055853;28;20040;-37
2023/05/04 01:41:45;;;;;;;6.15;4.53;;;9.10;99.90;;;;;;5055812;28;20021;-38
2023/05/04 01:44:11;;;;;;;7.90;4.18;;;9.10;99.90;;;;;;5055899;28;20027;-39
2023/05/04 01:46:37;;;;;;;5.57;4.40;;;9.10;99.90;;;;;;5074623;28;20032;-36
2023/05/04 01:49:02;;;;;;;14.48;4.68;;;9.00;99.90;;;;;;5075549;28;20060;-35
2023/05/04 01:51:28;;;;;;;8.90;4.57;;;9.00;99.90;;;;;;5074178;28;20079;-38
2023/05/04 01:53:54;;;;;;;8.05;4.75;;;9.00;99.90;;;;;;5075916;28;20074;-35
2023/05/04 01:56:20;;;;;;;5.57;4.72;;;9.00;99.90;;;;;;5075611;28;20021;-39
2023/05/04 01:58:46;;;;;;;8.07;4.50;;;9.00;99.90;;;;;;5075446;28;20120;-37
2023/05/04 02:01:11;;;;;;;9.05;4.57;;;8.90;99.90;;;;;;5062164;28;20100;-42
2023/05/04 02:03:37;;;;;;;6.22;4.55;;;8.90;99.90;;;;;;5055424;28;20108;-42
2023/05/04 02:06:03;;;;;;;7.75;4.85;;;8.90;99.90;;;;;;5072549;28;20074;-42
2023/05/04 02:08:28;;;;;;;6.82;4.22;;;8.90;99.90;;;;;;5073008;28;20024;-42
2023/05/04 02:10:54;;;;;;;7.22;3.60;;;8.90;99.90;;;;;;5074329;28;20027;-37
2023/05/04 02:13:21;;;;;;;9.80;4.53;;;8.90;99.90;;;;;;5056815;28;20465;-42
2023/05/04 02:15:47;;;;;;;10.38;4.90;;;8.90;99.90;;;;;;5062975;28;20367;-43
2023/05/04 02:18:13;;;;;;;7.75;4.30;;;8.90;99.90;;;;;;5066820;28;20042;-47
2023/05/04 02:20:38;;;;;;;10.52;4.20;;;8.90;99.90;;;;;;5075274;28;20079;-44
2023/05/04 02:23:04;;;;;;;12.15;4.25;;;8.90;99.90;;;;;;5075049;28;20069;-42
2023/05/04 02:25:30;;;;;;;13.57;4.60;;;8.80;99.90;;;;;;5068292;28;20013;-44
2023/05/04 02:27:55;;;;;;;4.68;3.55;;;8.80;99.90;;;;;;5055023;28;20033;-42
2023/05/04 02:30:21;;;;;;;8.23;4.22;;;8.90;99.90;;;;;;5056296;28;20712;-46
2023/05/04 02:32:47;;;;;;;5.85;3.72;;;8.90;99.90;;;;;;5075285;28;20028;-41
2023/05/04 02:35:12;;;;;;;5.38;3.50;;;8.90;99.90;;;;;;5073842;28;20020;-41
2023/05/04 02:37:38;;;;;;;10.38;4.47;;;8.90;99.90;;;;;;5074875;28;20031;-42
2023/05/04 02:40:04;;;;;;;9.27;4.07;;;8.80;99.90;;;;;;5074633;28;20033;-46
2023/05/04 02:42:30;;;;;;;9.60;3.85;;;8.80;99.90;;;;;;5075041;28;20495;-45
2023/05/04 02:44:56;;;;;;;4.60;3.55;;;8.80;99.90;;;;;;5073570;28;20515;-41
2023/05/04 02:47:21;;;;;;;5.10;3.60;;;8.80;99.90;;;;;;5074433;28;20033;-39
2023/05/04 02:49:47;;;;;;;9.95;3.92;;;8.80;99.90;;;;;;5074030;28;20040;-41
2023/05/04 02:52:13;;;;;;;6.03;4.03;;;8.80;99.90;;;;;;5074392;28;20102;-48
2023/05/04 02:54:39;;;;;;;9.90;3.97;;;8.80;99.90;;;;;;5072604;28;20024;-44
2023/05/04 02:57:05;;;;;;;4.63;3.63;;;8.70;99.90;;;;;;5060934;28;20158;-42
2023/05/04 02:59:31;;;;;;;4.32;3.72;;;8.70;99.90;;;;;;5074610;28;20485;-41
2023/05/04 03:01:57;;;;;;;8.95;4.40;;;8.70;99.90;;;;;;5073188;28;20036;-43
2023/05/04 03:04:22;;;;;;;5.25;3.75;;;8.70;99.90;;;;;;5074530;28;20025;-42
2023/05/04 03:06:48;;;;;;;5.47;3.42;;;8.70;99.90;;;;;;5068478;28;20418;-41
2023/05/04 03:09:14;;;;;;;9.40;3.78;;;8.70;99.90;;;;;;5074092;28;20035;-44
2023/05/04 03:11:39;;;;;;;7.70;4.28;;;8.60;99.90;;;;;;5073543;28;20090;-44
2023/05/04 03:14:05;;;;;;;10.18;4.43;;;8.70;99.90;;;;;;5073929;28;20036;-43
2023/05/04 03:16:31;;;;;;;6.72;3.78;;;8.60;99.90;;;;;;5057354;28;20033;-46
2023/05/04 03:18:57;;;;;;;7.45;4.28;;;8.60;99.90;;;;;;5053972;28;20112;-43
2023/05/04 03:21:22;;;;;;;8.10;4.20;;;8.60;99.90;;;;;;5066661;28;20049;-41
2023/05/04 03:23:48;;;;;;;5.40;3.38;;;8.60;99.90;;;;;;5073792;28;20036;-41
2023/05/04 03:26:13;;;;;;;5.05;3.63;;;8.60;99.90;;;;;;5072393;28;20378;-44
2023/05/04 03:28:39;;;;;;;9.93;3.90;;;8.60;99.90;;;;;;5073738;28;20041;-44
2023/05/04 03:31:05;;;;;;;5.38;3.70;;;8.60;99.90;;;;;;5072406;28;20248;-42
2023/05/04 03:33:30;;;;;;;7.00;4.85;;;8.60;99.90;;;;;;5071450;28;20468;-44
2023/05/04 03:35:56;;;;;;;10.40;4.10;;;8.50;99.90;;;;;;5066574;28;20496;-43
2023/05/04 03:38:21;;;;;;;4.53;2.97;;;8.50;99.90;;;;;;5073787;28;20028;-44
2023/05/04 03:40:47;;;;;;;6.85;3.42;;;8.50;99.90;;;;;;5073625;28;20020;-46
2023/05/04 03:43:13;;;;;;;9.18;3.95;;;8.50;99.90;;;;;;5072193;28;20392;-42
2023/05/04 03:45:38;;;;;;;6.15;3.90;;;8.50;99.90;;;;;;5072204;28;20119;-43
2023/05/04 03:48:04;;;;;;;5.28;3.70;;;8.50;99.90;;;;;;5073309;28;20477;-43
2023/05/04 03:50:30;;;;;;;7.50;4.07;;;8.50;99.90;;;;;;5053354;28;20025;-42
2023/05/04 03:52:56;;;;;;;10.50;4.38;;;8.40;99.90;;;;;;5053553;28;20473;-44
2023/05/04 03:55:22;;;;;;;4.65;3.65;;;8.40;99.90;;;;;;5061198;28;20031;-35
2023/05/04 03:57:47;;;;;;;6.25;4.15;;;8.40;99.90;;;;;;5069228;28;20542;-34
2023/05/04 04:00:14;;;;;;;6.20;3.72;;;8.40;99.90;;;;;;5070786;28;20019;-38
2023/05/04 04:02:39;;;;;;;16.02;4.70;;;8.40;99.90;;;;;;5062237;28;20025;-37
2023/05/04 04:05:06;;;;;;;6.93;4.45;;;8.40;99.90;;;;;;5070481;28;20017;-39
2023/05/04 04:07:32;;;;;;;8.25;4.05;;;8.30;99.90;;;;;;5059799;28;20060;-44
2023/05/04 04:09:57;;;;;;;5.80;3.63;;;8.30;99.90;;;;;;5054247;28;20048;-36
2023/05/04 04:12:23;;;;;;;5.35;3.78;;;8.30;99.90;;;;;;5073122;28;20484;-37
2023/05/04 04:14:51;;;;;;;6.72;4.05;;;8.30;99.90;;;;;;5072655;28;20029;-36
2023/05/04 04:17:17;;;;;;;7.38;3.72;;;8.30;99.90;;;;;;5072358;28;20090;-37
2023/05/04 04:19:43;;;;;;;11.48;4.70;;;8.30;99.90;;;;;;5066172;28;20505;-39
2023/05/04 04:22:08;;;;;;;6.53;4.32;;;8.30;99.90;;;;;;5065169;28;20521;-33
2023/05/04 04:24:34;;;;;;;6.88;4.30;;;8.20;99.90;;;;;;5069747;28;20481;-42
2023/05/04 04:26:59;;;;;;;11.88;4.47;;;8.20;99.90;;;;;;5063793;28;20022;-40
2023/05/04 04:29:26;;;;;;;12.20;3.67;;;8.20;99.90;;;;;;5072814;28;20092;-44
2023/05/04 04:31:52;;;;;;;11.32;4.63;;;8.20;99.90;;;;;;5069141;28;20032;-42
2023/05/04 04:34:17;;;;;;;6.38;4.22;;;8.30;99.90;;;;;;5072872;28;20032;-41
2023/05/04 04:36:43;;;;;;;11.85;4.78;;;8.30;99.90;;;;;;5073086;28;20074;-45
2023/05/04 04:39:10;;;;;;;11.77;4.50;;;8.30;99.90;;;;;;5060660;28;20078;-39
2023/05/04 04:41:35;;;;;;;13.18;5.00;;;8.30;99.90;;;;;;5070088;28;20056;-42
2023/05/04 04:44:01;;;;;;;8.05;4.20;;;8.30;99.90;;;;;;5072457;28;20017;-41
2023/05/04 04:46:27;;;;;;;8.27;3.75;;;8.30;99.90;;;;;;5067721;28;20131;-41
2023/05/04 04:48:54;;;;;;;10.40;4.18;;;8.40;99.90;;;;;;5071638;28;20492;-45
2023/05/04 04:51:20;;;;;;;13.30;4.33;;;8.30;99.90;;;;;;5070766;28;20166;-40
2023/05/04 04:53:45;;;;;;;9.10;4.00;;;8.30;99.90;;;;;;5053491;28;20516;-41
2023/05/04 04:56:11;;;;;;;9.35;4.07;;;8.30;99.90;;;;;;5061304;28;20053;-41
2023/05/04 04:58:37;;;;;;;9.30;4.57;;;8.40;99.90;;;;;;5069325;28;20067;-40
2023/05/04 05:01:03;;;;;;;12.57;4.45;;;8.40;99.90;;;;;;5070489;28;20036;-42
2023/05/04 05:03:30;;;;;;;7.40;4.78;;;8.50;99.90;;;;;;5070786;28;20108;-44
2023/05/04 05:05:55;;;;;;;12.25;4.43;;;8.50;99.90;;;;;;5067906;28;20469;-41
2023/05/04 05:08:21;;;;;;;5.68;3.90;;;8.50;99.90;;;;;;5071630;28;20031;-36
2023/05/04 05:10:47;;;;;;;16.98;4.75;;;8.60;99.90;;;;;;5071379;28;20028;-43
2023/05/04 05:13:13;;;;;;;6.25;4.10;;;8.60;99.90;;;;;;5069352;28;20040;-43
2023/05/04 05:15:38;;;;;;;7.78;3.92;;;8.60;99.90;;;;;;5070685;28;20028;-41
2023/05/04 05:18:04;;;;;;;6.38;3.78;;;8.60;99.90;;;;;;5062683;28;20385;-45
2023/05/04 05:20:30;;;;;;;6.20;3.97;;;8.60;99.90;;;;;;5070790;28;20040;-44
2023/05/04 05:22:56;;;;;;;9.80;4.60;;;8.70;99.90;;;;;;5071641;28;20028;-42
2023/05/04 05:25:22;;;;;;;5.97;4.25;;;8.70;99.90;;;;;;5070905;28;20024;-38
2023/05/04 05:27:48;;;;;;;6.85;4.38;;;8.80;99.90;;;;;;5070605;28;20381;-39
2023/05/04 05:30:14;;;;;;;9.02;4.57;;;8.80;99.90;;;;;;5068263;28;20025;-42
2023/05/04 05:32:40;;;;;;;7.18;4.15;;;8.80;99.90;;;;;;5070985;28;20032;-37
2023/05/04 05:35:07;;;;;;;12.57;4.30;;;8.90;99.90;;;;;;5069678;28;20030;-38
2023/05/04 05:37:32;;;;;;;6.93;4.10;;;8.90;99.90;;;;;;5071492;28;20461;-40
2023/05/04 05:39:58;;;;;;;10.73;4.40;;;8.90;99.90;;;;;;5071793;28;20031;-37
2023/05/04 05:42:24;;;;;;;9.00;4.53;;;9.00;99.90;;;;;;5062723;28;20449;-42
2023/05/04 05:44:50;;;;;;;6.18;4.25;;;9.10;99.90;;;;;;5066342;28;20086;-38
2023/05/04 05:47:16;;;;;;;8.75;4.38;;;9.10;99.90;;;;;;5072770;28;20479;-37
2023/05/04 05:49:41;;;;;;;7.40;4.65;;;9.20;99.90;;;;;;5075017;28;20078;-40
2023/05/04 05:52:07;;;;;;;13.57;5.72;;;9.30;99.90;;;;;;5067909;28;20447;-37
2023/05/04 05:54:34;;;;;;;8.65;4.53;;;9.30;99.90;;;;;;5070935;28;20060;-40
2023/05/04 05:57:00;;;;;;;6.32;3.92;;;9.50;99.90;;;;;;5071730;28;20103;-42
2023/05/04 05:59:26;;;;;;;6.55;4.20;;;9.50;99.90;;;;;;5072612;28;20071;-37
2023/05/04 06:01:52;;;;;;;6.05;4.00;;;9.70;99.90;;;;;;5070431;28;20485;-40
2023/05/04 06:04:17;;;;;;;7.97;4.20;;;9.90;99.90;;;;;;5065864;28;20021;-42
2023/05/04 06:06:43;;;;;;;10.25;4.57;;;10.00;99.90;;;;;;5067594;28;20024;-41
2023/05/04 06:09:09;;;;;;;9.00;4.88;;;10.00;99.90;;;;;;5065390;28;20408;-39
2023/05/04 06:11:35;;;;;;;6.10;4.50;;;10.10;99.90;;;;;;5063346;28;20051;-46
2023/05/04 06:14:00;;;;;;;6.07;4.32;;;10.20;99.90;;;;;;5066833;28;20025;-44
2023/05/04 06:16:26;;;;;;;6.10;4.13;;;10.30;99.90;;;;;;5055487;28;20028;-45
2023/05/04 06:18:52;;;;;;;5.53;4.20;;;10.20;99.90;;;;;;5067228;28;20485;-42
2023/05/04 06:21:17;;;;;;;7.78;4.22;;;10.20;99.90;;;;;;5070977;28;20037;-47
2023/05/04 06:23:44;;;;;;;9.88;4.90;;;10.30;99.90;;;;;;5075002;28;20017;-40
2023/05/04 06:26:10;;;;;;;7.70;4.63;;;10.40;99.90;;;;;;5075326;28;20017;-47
2023/05/04 06:28:35;;;;;;;10.15;4.22;;;10.40;99.90;;;;;;5075257;28;20487;-43
2023/05/04 06:31:02;;;;;;;8.73;4.45;;;10.50;99.90;;;;;;5064273;28;20025;-43
2023/05/04 06:33:28;;;;;;;8.02;4.25;;;10.60;99.90;;;;;;5054887;28;20078;-41
2023/05/04 06:35:53;;;;;;;7.45;4.78;;;10.60;99.90;;;;;;5064206;28;20041;-43
2023/05/04 06:38:20;;;;;;;8.40;4.07;;;10.70;99.90;;;;;;5073378;28;20477;-44
2023/05/04 06:40:45;;;;;;;7.22;5.10;;;10.80;99.90;;;;;;5056524;28;20470;-45
2023/05/04 06:43:11;;;;;;;6.38;4.18;;;11.00;99.90;;;;;;5066325;28;20021;-38
2023/05/04 06:45:38;;;;;;;5.00;3.95;;;11.20;99.90;;;;;;5074388;28;20033;-36
2023/05/04 06:48:04;;;;;;;7.28;3.90;;;11.30;99.90;;;;;;5072293;28;20183;-39
2023/05/04 06:50:31;;;;;;;11.52;3.90;;;11.40;99.90;;;;;;5064734;28;20385;-39
2023/05/04 06:53:08;;;;;;;6.88;4.13;;;11.40;99.90;;;;;;5073616;28;20056;-39
2023/05/04 06:55:37;;;;;;;9.68;4.60;;;11.60;99.90;;;;;;5071976;28;20099;-38
2023/05/04 06:58:03;;;;;;;8.68;4.15;;;11.70;99.90;;;;;;5073064;28;20473;-39
2023/05/04 07:00:30;;;;;;;7.82;4.82;;;11.70;99.90;;;;;;5074212;28;20082;-37
2023/05/04 07:02:55;;;;;;;8.40;4.07;;;11.80;99.90;;;;;;5072013;28;20021;-35
2023/05/04 07:05:22;;;;;;;7.80;4.47;;;11.90;99.90;;;;;;5066998;28;20032;-39
2023/05/04 07:07:48;;;;;;;10.30;4.57;;;12.10;99.90;;;;;;5073291;28;20476;-37
2023/05/04 07:10:14;;;;;;;9.82;3.90;;;12.40;99.90;;;;;;5074038;28;20407;-37
2023/05/04 07:12:41;;;;;;;8.52;4.22;;;12.60;99.90;;;;;;5074024;28;20145;-36
2023/05/04 07:15:07;;;;;;;8.32;4.13;;;12.90;99.90;;;;;;5064953;28;20035;-42
2023/05/04 07:17:33;;;;;;;6.35;4.28;;;13.10;99.90;;;;;;5074528;28;20481;-47
2023/05/04 07:20:01;;;;;;;9.00;4.07;;;13.20;99.90;;;;;;5071793;28;20028;-43
2023/05/04 07:22:28;;;;;;;7.95;4.30;;;13.30;99.90;;;;;;5062322;28;20125;-41
2023/05/04 07:24:56;;;;;;;7.20;4.30;;;13.40;99.90;;;;;;5073146;28;20032;-44
2023/05/04 07:27:21;;;;;;;8.30;4.10;;;13.40;99.90;;;;;;5060574;28;20052;-42
2023/05/04 07:29:47;;;;;;;7.32;4.18;;;13.60;99.90;;;;;;5073910;28;20496;-45
2023/05/04 07:32:12;;;;;;;6.10;4.20;;;13.70;99.90;;;;;;5062109;28;20063;-41
2023/05/04 07:34:38;;;;;;;7.95;3.88;;;13.90;99.90;;;;;;5064868;28;20407;-43
2023/05/04 07:37:04;;;;;;;6.82;3.88;;;14.00;99.90;;;;;;5061338;28;20021;-43
2023/05/04 07:39:30;;;;;;;7.20;4.30;;;14.20;99.90;;;;;;5073826;28;20427;-35
2023/05/04 07:41:55;;;;;;;7.82;3.72;;;14.40;99.90;;;;;;5060699;28;20025;-37
2023/05/04 07:44:21;;;;;;;7.78;3.80;;;14.50;99.90;;;;;;5057937;28;20021;-36
2023/05/04 07:46:47;;;;;;;9.40;3.75;;;14.60;99.90;;;;;;5073231;28;20439;-34
2023/05/04 07:49:12;;;;;;;9.95;3.83;;;14.80;99.90;;;;;;5059791;28;20024;-45
2023/05/04 07:51:38;;;;;;;18.13;4.25;;;15.10;99.90;;;;;;5072694;28;20071;-43
2023/05/04 07:54:04;;;;;;;4.18;3.47;;;15.30;99.90;;;;;;5072121;28;20111;-38
2023/05/04 07:56:30;;;;;;;4.95;3.72;;;15.50;99.90;;;;;;5070569;28;20465;-39
2023/05/04 07:58:55;;;;;;;5.43;3.30;;;15.50;99.90;;;;;;5070292;28;20039;-36
2023/05/04 08:01:21;;;;;;;11.25;4.00;;;15.60;99.90;;;;;;5072804;28;20092;-35
2023/05/04 08:03:47;;;;;;;5.20;2.85;;;15.60;99.90;;;;;;5073030;28;20488;-37
2023/05/04 08:06:13;;;;;;;4.97;3.38;;;15.60;99.90;;;;;;5071955;28;20024;-31
2023/05/04 08:08:38;;;;;;;5.57;3.88;;;15.70;99.90;;;;;;5073046;28;20032;-38
2023/05/04 08:11:04;;;;;;;8.40;4.28;;;15.70;99.90;;;;;;5072095;28;20024;-36
2023/05/04 08:13:30;;;;;;;7.57;3.55;;;15.90;99.90;;;;;;5072351;28;20544;-37
2023/05/04 08:16:00;;;;;;;7.18;3.55;;;15.90;99.90;;;;;;5072312;28;20043;-35
2023/05/04 08:18:26;;;;;;;6.18;3.42;;;16.00;99.90;;;;;;5071946;28;20021;-41
2023/05/04 08:20:52;;;;;;;3.13;2.50;;;16.30;99.90;;;;;;5068994;28;20017;-40
2023/05/04 08:23:18;;;;;;;9.55;3.30;;;16.30;99.90;;;;;;5053792;28;20031;-38
2023/05/04 08:25:44;;;;;;;6.38;3.47;;;16.40;99.90;;;;;;5051624;28;20016;-41
2023/05/04 08:28:09;;;;;;;5.68;3.28;;;16.50;99.90;;;;;;5055187;28;20371;-36
2023/05/04 08:30:36;;;;;;;7.82;3.70;;;16.50;99.90;;;;;;5073030;28;20056;-40
2023/05/04 08:33:02;;;;;;;4.13;3.35;;;16.50;99.90;;;;;;5073201;28;20040;-39
2023/05/04 08:35:27;;;;;;;4.93;3.10;;;16.80;99.90;;;;;;5072817;28;20059;-38
2023/05/04 08:37:53;;;;;;;12.35;3.75;;;17.10;99.90;;;;;;5071433;28;20021;-40
2023/05/04 08:40:19;;;;;;;7.53;3.85;;;17.40;99.70;;;;;;5070939;28;20445;-36
2023/05/04 08:42:49;;;;;;;6.80;3.25;;;17.60;99.40;;;;;;5062132;28;20021;-37
2023/05/04 08:45:16;;;;;;;5.40;3.47;;;17.70;99.20;;;;;;5070617;28;20484;-40
2023/05/04 08:47:42;;;;;;;13.03;3.73;;;17.90;98.60;;;;;;5060935;28;20021;-42
2023/05/04 08:50:09;;;;;;;5.38;3.22;;;17.80;99.40;;;;;;5052931;28;20033;-36
2023/05/04 08:52:37;;;;;;;6.28;3.25;;;17.90;98.70;;;;;;5051806;28;20049;-35
2023/05/04 08:55:04;;;;;;;4.85;3.38;;;18.00;98.80;;;;;;5059675;28;20473;-33
2023/05/04 08:57:30;;;;;;;6.70;3.75;;;18.10;98.70;;;;;;5052036;28;20024;-39
2023/05/04 08:59:57;;;;;;;8.77;3.70;;;18.30;98.70;;;;;;5055727;28;20485;-33
2023/05/04 09:02:23;;;;;;;4.15;3.10;;;18.50;98.30;;;;;;5053895;28;20490;-34
2023/05/04 09:04:50;;;;;;;4.50;2.90;;;18.70;98.40;;;;;;5057601;28;20386;-40
2023/05/04 09:07:20;;;;;;;6.82;2.38;;;18.70;98.30;;;;;;5052667;28;20036;-39
2023/05/04 09:09:47;;;;;;;3.58;3.28;;;18.70;98.10;;;;;;5052473;28;20029;-31
2023/05/04 09:12:13;;;;;;;5.45;3.28;;;18.90;97.80;;;;;;5067745;28;20071;-38
2023/05/04 09:14:40;;;;;;;5.47;3.40;;;19.20;97.70;;;;;;5072402;28;20044;-35
2023/05/04 09:17:24;;;;;;;5.95;3.35;;;19.40;97.30;;;;;;5072550;28;20021;-33
2023/05/04 09:20:03;;;;;;;8.27;2.72;;;19.50;97.30;;;;;;5072191;28;20381;-34
2023/05/04 09:22:29;;;;;;;6.10;3.13;;;19.80;96.90;;;;;;5057319;28;20029;-40
2023/05/04 09:25:09;;;;;;;7.45;3.28;;;20.30;95.90;;;;;;5056208;28;20033;-37
2023/05/04 09:27:35;;;;;;;5.93;3.00;;;21.00;95.40;;;;;;5071864;28;20017;-33
2023/05/04 09:30:01;;;;;;;9.00;2.90;;;21.30;95.60;;;;;;5074066;28;20531;-35
2023/05/04 09:32:27;;;;;;;16.90;3.63;;;21.90;94.50;;;;;;5075160;28;20032;-35
2023/05/04 09:34:53;;;;;;;4.53;2.30;;;22.20;94.00;;;;;;5072948;28;20029;-34
2023/05/04 09:37:20;;;;;;;3.22;2.50;;;22.90;93.70;;;;;;5071680;28;20067;-31
2023/05/04 09:40:04;;;;;;;11.57;2.77;;;23.00;93.50;;;;;;5075854;28;20470;-34
2023/05/04 09:42:30;;;;;;;3.45;2.88;;;23.30;93.10;;;;;;5075031;28;20489;-35
2023/05/04 09:45:04;;;;;;;8.40;2.40;;;23.60;92.60;;;;;;5071936;28;20041;-33
2023/05/04 09:47:40;;;;;;;8.07;2.97;;;23.40;92.50;;;;;;5072594;28;20078;-45
2023/05/04 09:50:17;;;;;;;5.88;2.63;;;23.70;91.90;;;;;;5075664;28;20036;-43
2023/05/04 09:52:43;;;;;;;3.10;2.27;;;23.40;92.60;;;;;;5075463;28;20102;-41
2023/05/04 09:55:14;;;;;;;4.45;2.53;;;23.10;93.00;;;;;;5060735;28;20325;-43
2023/05/04 09:57:43;;;;;;;4.97;3.13;;;23.10;92.20;;;;;;5075619;28;20093;-45
2023/05/04 10:00:11;;;;;;;5.35;2.80;;;22.90;92.80;;;;;;5075696;28;20036;-46
2023/05/04 10:02:37;;;;;;;6.25;3.00;;;22.60;92.60;;;;;;5075445;28;20044;-43
2023/05/04 10:05:05;;;;;;;3.92;2.03;;;22.40;92.70;;;;;;5075196;28;20028;-45
2023/05/04 10:07:32;;;;;;;6.10;3.80;;;22.20;93.20;;;;;;5090889;28;20489;-43
2023/05/04 10:09:58;;;;;;;4.65;2.90;;;21.90;92.90;;;;;;5074461;28;20056;-44
2023/05/04 10:12:51;;;;;;;7.60;3.60;;;21.70;93.80;;;;;;5075382;28;20388;-42
2023/05/04 10:15:19;;;;;;;4.72;2.75;;;21.40;93.90;;;;;;5074124;28;20562;-43
2023/05/04 10:18:17;;;;;;;9.32;3.05;;;21.50;93.80;;;;;;5075051;28;20499;-41
2023/05/04 10:21:04;;;;;;;4.70;2.83;;;21.90;93.00;;;;;;5072217;28;20485;-45
2023/05/04 10:23:41;;;;;;;5.72;2.70;;;21.80;93.90;;;;;;5058539;28;20385;-42
2023/05/04 10:26:21;;;;;;;4.50;2.30;;;22.30;93.00;;;;;;5054590;28;20029;-47
2023/05/04 10:28:58;;;;;;;3.63;2.15;;;22.80;92.80;;;;;;5070743;28;20111;-45
2023/05/04 10:31:24;;;;;;;;;;;23.00;92.40;;;;;;5075607;28;20480;-45
2023/05/04 10:33:50;;;;;;;5.07;2.38;;;23.00;92.30;;;;;;5074716;28;19958;-45
2023/05/04 10:36:16;;;;;;;8.15;2.95;;;23.00;92.50;;;;;;5074924;28;20021;-48
2023/05/04 10:38:41;;;;;;;4.25;2.15;;;23.10;92.60;;;;;;5072377;28;20029;-42
2023/05/04 10:41:15;;;;;;;2.90;2.60;;;22.90;92.30;;;;;;5074573;28;20438;-42
2023/05/04 10:43:41;;;;;;;6.32;2.47;;;22.90;92.50;;;;;;5074838;28;20481;-46
2023/05/04 10:46:21;;;;;;;2.97;2.33;;;22.80;92.40;;;;;;5072576;28;20029;-45
2023/05/04 10:48:48;;;;;;;4.00;2.30;;;22.70;92.90;;;;;;5074980;28;20442;-42
2023/05/04 10:51:24;;;;;;;10.57;3.00;;;22.80;92.40;;;;;;5074653;28;20477;-43
2023/05/04 10:53:50;;;;;;;5.30;2.60;;;22.90;93.10;;;;;;5074720;28;20553;-47
2023/05/04 10:56:20;;;;;;;7.60;2.65;;;23.10;93.10;;;;;;5062421;28;20492;-44
2023/05/04 10:58:47;;;;;;;8.27;2.50;;;23.10;91.70;;;;;;5071245;28;20123;-44
2023/05/04 11:01:13;;;;;;;4.70;2.63;;;23.10;91.70;;;;;;5073230;28;20029;-41
2023/05/04 11:03:39;;;;;;;6.28;3.70;;;23.20;92.00;;;;;;5063277;28;20283;-45
2023/05/04 11:06:23;;;;;;;3.85;2.40;;;23.10;92.20;;;;;;5062017;28;20025;-42
2023/05/04 11:09:04;;;;;;;7.60;2.67;;;23.10;91.70;;;;;;5065785;28;20036;-40
2023/05/04 11:11:35;;;;;;;8.23;3.33;;;23.10;91.60;;;;;;5072834;28;20028;-44
2023/05/04 11:14:01;;;;;;;7.32;2.63;;;23.10;92.20;;;;;;5068891;28;20166;-41
2023/05/04 11:16:27;;;;;;;7.20;4.35;;;23.00;92.00;;;;;;5073459;28;20566;-41
2023/05/04 11:18:53;;;;;;;3.40;2.30;;;23.10;91.90;;;;;;5064537;28;20064;-43
2023/05/04 11:21:24;;;;;;;2.45;2.08;;;23.20;92.00;;;;;;5062055;28;20520;-44
2023/05/04 11:23:57;;;;;;;9.50;3.10;;;23.30;91.80;;;;;;5058058;28;20547;-44
2023/05/04 11:26:23;;;;;;;6.22;3.35;;;23.20;91.90;;;;;;5073939;28;20546;-45
2023/05/04 11:28:49;;;;;;;4.22;2.53;;;23.20;91.80;;;;;;5071492;28;20111;-41
2023/05/04 11:31:16;;;;;;;3.70;2.53;;;23.20;91.20;;;;;;5056737;28;20600;-37
2023/05/04 11:33:45;;;;;;;3.40;2.63;;;23.00;91.60;;;;;;5072568;28;20104;-43
2023/05/04 11:36:12;;;;;;;6.90;3.03;;;23.10;91.30;;;;;;5069891;28;20033;-41
2023/05/04 11:38:37;;;;;;;2.38;1.95;;;23.10;91.10;;;;;;5069968;28;20435;-44
2023/05/04 11:41:15;;;;;;;8.07;2.58;;;23.10;91.40;;;;;;5063444;28;20052;-44
2023/05/04 11:43:42;;;;;;;;;;;23.30;91.70;;;;;;5073345;28;20439;-46
2023/05/04 11:46:09;;;;;;;3.78;2.03;;;23.40;91.50;;;;;;5053423;28;19909;-41
2023/05/04 11:48:35;;;;;;;2.80;2.47;;;23.50;90.90;;;;;;5053301;28;20064;-43
2023/05/04 11:51:04;;;;;;;3.28;2.50;;;23.50;90.60;;;;;;5053427;28;20358;-43
2023/05/04 11:53:37;;;;;;;2.50;2.30;;;23.50;91.20;;;;;;5066037;28;20048;-43
2023/05/04 11:56:03;;;;;;;2.65;2.45;;;23.50;91.10;;;;;;5073669;28;20035;-45
2023/05/04 11:58:29;;;;;;;3.50;2.78;;;23.40;91.00;;;;;;5073192;28;20047;-44
2023/05/04 12:00:56;;;;;;;7.03;2.92;;;23.40;91.00;;;;;;5074398;28;20450;-43
2023/05/04 12:03:36;;;;;;;2.72;2.42;;;23.50;90.60;;;;;;5070727;28;20034;-39
2023/05/04 12:06:02;;;;;;;7.13;2.28;;;23.50;90.80;;;;;;5059639;28;20029;-42
2023/05/04 12:08:30;;;;;;;3.97;2.60;;;23.50;90.80;;;;;;5072944;28;20040;-42
2023/05/04 12:11:08;;;;;;;10.30;3.70;;;23.50;90.10;;;;;;5063523;28;20029;-41
2023/05/04 12:13:35;;;;;;;10.52;3.72;;;23.40;90.80;;;;;;5070846;28;20385;-37
2023/05/04 12:16:11;;;;;;;5.30;2.97;;;23.30;90.50;;;;;;5072807;28;20385;-37
2023/05/04 12:18:37;;;;;;;5.87;3.20;;;23.20;90.80;;;;;;5073160;28;20481;-33
2023/05/04 12:21:20;;;;;;;7.65;3.72;;;23.20;92.10;;;;;;5072781;28;20087;-39
2023/05/04 12:23:46;;;;;;;6.95;3.50;;;23.10;91.40;;;;;;5072494;28;20378;-40
2023/05/04 12:26:13;;;;;;;9.07;4.17;;;23.00;92.00;;;;;;5072881;28;20166;-35
2023/05/04 12:28:41;;;;;;;13.85;4.40;;;23.00;91.90;;;;;;5072879;28;20744;-34
2023/05/04 12:31:07;;;;;;;15.38;4.43;;;23.10;91.80;;;;;;5072897;28;20052;-38
2023/05/04 12:33:34;;;;;;;10.63;4.10;;;23.10;92.30;;;;;;5072855;28;20483;-39
2023/05/04 12:36:00;;;;;;;6.40;3.65;;;23.10;92.50;;;;;;5072586;28;20037;-34
2023/05/04 12:38:27;;;;;;;4.40;3.40;;;23.10;91.70;;;;;;5072989;28;20024;-39
2023/05/04 12:40:54;;;;;;;7.53;3.95;;;23.40;91.70;;;;;;5072822;28;20465;-37
2023/05/04 12:43:21;;;;;;;9.10;3.93;;;23.50;92.30;;;;;;5072979;28;20358;-37
2023/05/04 12:45:51;;;;;;;7.32;3.90;;;23.70;91.40;;;;;;5072732;28;20027;-40
2023/05/04 12:48:19;;;;;;;9.23;4.60;;;23.90;91.30;;;;;;5072686;28;20025;-31
2023/05/04 12:51:34;;;;;;;7.13;4.70;;;23.90;90.60;;;;;;5072833;28;20438;-35